Caen, France
Current Conditions -  °F | °C
As of 11:30 AM on Wednesday 22 Oct 2014 (Local Time) from LFRK Reporting Station
Broken Clouds Broken Clouds  
Wind Chill: 55°   Ceiling: 5000
Heat Index: 55°   Visibility: 6mi
Dew Point: 45°   Wind: 14mph
Humidity: 67%   Direction: 300°WNW
Pressure: 30.36"   Gusts: NA
Location:  49.18°N, 0.36°W
Report Text: LFRK 220930Z AUTO 30012KT 9999 FEW040 BKN050 13/07 Q1028
Loading
Personal Weather Stations






























Interactive Weather Map
Tropical Storm Tracking
New forecast layout! Learn more

10-Day Weather Forecast

Advertisements
Track Severe Weather on mobile